createdAt,value
2023-03-28T00:00:47.487Z,12.75
2023-03-28T00:03:14.607Z,12.38
2023-03-28T00:05:41.629Z,8.07
2023-03-28T00:08:08.985Z,11.50
2023-03-28T00:10:35.349Z,11.52
2023-03-28T00:13:01.747Z,9.18
2023-03-28T00:15:28.659Z,10.23
2023-03-28T00:17:55.120Z,9.63
2023-03-28T00:20:21.528Z,12.35
2023-03-28T00:22:48.009Z,8.50
2023-03-28T00:25:14.386Z,9.48
2023-03-28T00:27:41.032Z,12.70
2023-03-28T00:30:08.148Z,15.00
2023-03-28T00:32:34.516Z,8.48
2023-03-28T00:35:00.844Z,12.13
2023-03-28T00:37:27.739Z,11.00
2023-03-28T00:39:54.203Z,8.63
2023-03-28T00:42:23.062Z,9.70
2023-03-28T00:44:51.676Z,12.50
2023-03-28T00:47:25.702Z,12.90
2023-03-28T00:50:03.349Z,9.07
2023-03-28T00:52:34.400Z,15.20
2023-03-28T00:55:00.956Z,9.73
2023-03-28T00:57:28.422Z,10.38
2023-03-28T00:59:55.605Z,13.80
2023-03-28T01:02:22.123Z,10.15
2023-03-28T01:05:01.324Z,12.65
2023-03-28T01:07:35.091Z,11.00
2023-03-28T01:10:04.034Z,8.52
2023-03-28T01:12:33.043Z,13.18
2023-03-28T01:15:00.832Z,8.25
2023-03-28T01:17:27.676Z,6.13
2023-03-28T01:20:14.144Z,9.52
2023-03-28T01:23:02.775Z,9.10
2023-03-28T01:25:35.428Z,9.13
2023-03-28T01:28:32.174Z,9.23
2023-03-28T01:31:02.045Z,12.00
2023-03-28T01:33:41.928Z,9.23
2023-03-28T01:36:46.202Z,7.85
2023-03-28T01:39:21.848Z,9.95
2023-03-28T01:44:38.395Z,6.55
2023-03-28T01:47:24.490Z,9.00
2023-03-28T01:52:47.658Z,6.20
2023-03-28T01:55:19.996Z,10.15
2023-03-28T01:58:14.908Z,8.02
2023-03-28T02:00:45.901Z,5.78
2023-03-28T02:03:22.711Z,5.72
2023-03-28T02:05:50.220Z,8.93
2023-03-28T02:08:18.789Z,6.90
2023-03-28T02:10:47.124Z,10.93
2023-03-28T02:13:17.877Z,7.25
2023-03-28T02:15:48.769Z,8.35
2023-03-28T02:18:23.470Z,8.32
2023-03-28T02:20:54.914Z,7.33
2023-03-28T02:23:28.080Z,9.40
2023-03-28T02:25:54.696Z,10.73
2023-03-28T02:28:22.946Z,12.95
2023-03-28T02:30:51.632Z,6.90
2023-03-28T02:33:47.060Z,8.15
2023-03-28T02:36:19.230Z,7.28
2023-03-28T02:39:06.193Z,9.07
2023-03-28T02:41:41.524Z,7.55
2023-03-28T02:44:28.605Z,10.35
2023-03-28T02:47:09.073Z,6.13
2023-03-28T02:49:50.693Z,6.97
2023-03-28T02:52:37.458Z,4.43
2023-03-28T02:55:25.580Z,5.40
2023-03-28T02:58:08.264Z,7.85
2023-03-28T03:00:36.592Z,6.75
2023-03-28T03:03:04.004Z,6.90
2023-03-28T03:05:30.416Z,8.45
2023-03-28T03:07:56.784Z,9.43
2023-03-28T03:10:23.280Z,8.32
2023-03-28T03:12:49.626Z,11.68
2023-03-28T03:15:18.535Z,7.50
2023-03-28T03:17:45.690Z,8.73
2023-03-28T03:20:12.270Z,8.07
2023-03-28T03:22:39.196Z,7.63
2023-03-28T03:25:08.140Z,5.43
2023-03-28T03:27:36.680Z,4.45
2023-03-28T03:30:05.151Z,7.25
2023-03-28T03:32:31.724Z,4.68
2023-03-28T03:34:58.504Z,6.50
2023-03-28T03:37:24.872Z,7.45
2023-03-28T03:39:51.209Z,9.23
2023-03-28T03:42:17.532Z,5.22
2023-03-28T03:44:43.888Z,7.90
2023-03-28T03:47:10.508Z,9.52
2023-03-28T03:49:36.982Z,11.30
2023-03-28T03:52:03.598Z,6.95
2023-03-28T03:54:30.372Z,7.32
2023-03-28T03:56:56.743Z,6.60
2023-03-28T03:59:23.454Z,6.68
2023-03-28T04:01:49.900Z,6.97
2023-03-28T04:04:16.366Z,9.60
2023-03-28T04:06:42.941Z,8.20
2023-03-28T04:09:09.275Z,7.28
2023-03-28T04:11:35.844Z,9.23
2023-03-28T04:14:02.380Z,6.65
2023-03-28T04:16:29.743Z,8.52
2023-03-28T04:19:07.707Z,5.93
2023-03-28T04:21:35.207Z,6.60
2023-03-28T04:24:01.782Z,6.78
2023-03-28T04:26:29.474Z,10.55
2023-03-28T04:28:57.123Z,9.07
2023-03-28T04:31:28.688Z,8.23
2023-03-28T04:33:55.453Z,8.20
2023-03-28T04:36:25.733Z,12.07
2023-03-28T04:38:52.598Z,13.55
2023-03-28T04:41:19.253Z,6.82
2023-03-28T04:43:46.588Z,6.75
2023-03-28T04:46:12.941Z,13.70
2023-03-28T04:48:39.313Z,10.02
2023-03-28T04:51:06.578Z,5.78
2023-03-28T04:53:33.001Z,6.15
2023-03-28T04:56:00.147Z,4.85
2023-03-28T04:58:26.716Z,7.63
2023-03-28T05:00:53.900Z,10.57
2023-03-28T05:03:22.940Z,6.88
2023-03-28T05:05:52.176Z,8.98
2023-03-28T05:08:22.524Z,7.75
2023-03-28T05:10:49.832Z,9.88
2023-03-28T05:13:16.701Z,6.90
2023-03-28T05:15:43.774Z,7.53
2023-03-28T05:18:11.479Z,7.10
2023-03-28T05:20:37.899Z,7.70
2023-03-28T05:23:06.277Z,9.65
2023-03-28T05:25:33.066Z,9.80
2023-03-28T05:28:00.004Z,12.15
2023-03-28T05:30:26.536Z,10.43
2023-03-28T05:32:53.272Z,10.38
2023-03-28T05:35:20.191Z,9.77
2023-03-28T05:37:47.112Z,12.32
2023-03-28T05:40:15.317Z,12.88
2023-03-28T05:42:41.782Z,8.63
2023-03-28T05:45:10.451Z,13.05
2023-03-28T05:47:36.835Z,12.05
2023-03-28T05:50:03.991Z,8.23
2023-03-28T05:52:30.436Z,11.63
2023-03-28T05:54:57.422Z,17.50
2023-03-28T05:57:25.171Z,13.32
2023-03-28T05:59:51.642Z,13.82
2023-03-28T06:02:20.108Z,17.40
2023-03-28T06:04:46.801Z,14.73
2023-03-28T06:07:13.579Z,15.25
2023-03-28T06:09:41.022Z,13.38
2023-03-28T06:12:07.614Z,9.93
2023-03-28T06:14:34.140Z,14.50
2023-03-28T06:17:00.657Z,18.90
2023-03-28T06:19:27.144Z,18.60
2023-03-28T06:21:53.990Z,16.20
2023-03-28T06:24:20.686Z,17.45
2023-03-28T06:26:47.205Z,15.05
2023-03-28T06:29:13.627Z,11.85
2023-03-28T06:31:40.003Z,14.60
2023-03-28T06:34:06.441Z,11.48
2023-03-28T06:36:32.786Z,10.52
2023-03-28T06:38:59.130Z,11.07
2023-03-28T06:41:25.500Z,12.32
2023-03-28T06:43:51.831Z,8.38
2023-03-28T06:46:18.491Z,11.00
2023-03-28T06:48:44.889Z,12.13
2023-03-28T06:51:12.798Z,7.57
2023-03-28T06:53:39.276Z,9.25
2023-03-28T06:56:06.782Z,10.63
2023-03-28T06:58:33.250Z,7.82
2023-03-28T07:01:00.438Z,10.95
2023-03-28T07:03:29.880Z,9.50
2023-03-28T07:05:56.418Z,7.18
2023-03-28T07:08:23.001Z,11.63
2023-03-28T07:10:49.729Z,12.77
2023-03-28T07:13:16.200Z,8.52
2023-03-28T07:15:42.535Z,16.48
2023-03-28T07:18:11.777Z,19.88
2023-03-28T07:20:39.964Z,15.55
2023-03-28T07:23:06.683Z,15.05
2023-03-28T07:25:33.540Z,13.48
2023-03-28T07:28:00.113Z,8.77
2023-03-28T07:30:26.995Z,16.02
2023-03-28T07:33:01.814Z,13.77
2023-03-28T07:35:41.816Z,8.55
2023-03-28T07:38:08.200Z,10.10
2023-03-28T07:40:34.544Z,17.80
2023-03-28T07:43:01.167Z,12.10
2023-03-28T07:45:27.579Z,6.28
2023-03-28T07:47:54.023Z,10.07
2023-03-28T07:50:21.138Z,10.70
2023-03-28T07:52:48.804Z,10.98
2023-03-28T07:55:15.359Z,13.43
2023-03-28T07:57:41.764Z,7.28
2023-03-28T08:00:12.923Z,10.00
2023-03-28T08:02:44.693Z,12.38
2023-03-28T08:05:11.573Z,9.77
2023-03-28T08:07:38.010Z,11.60
2023-03-28T08:10:04.763Z,9.57
2023-03-28T08:12:31.790Z,12.20
2023-03-28T08:14:58.225Z,14.00
2023-03-28T08:17:24.665Z,11.50
2023-03-28T08:19:51.074Z,12.43
2023-03-28T08:22:17.600Z,11.77
2023-03-28T08:24:44.376Z,11.07
2023-03-28T08:27:10.764Z,7.65
2023-03-28T08:29:37.200Z,14.30
2023-03-28T08:32:06.119Z,10.77
2023-03-28T08:34:32.449Z,8.63
2023-03-28T08:36:59.871Z,15.43
2023-03-28T08:39:26.511Z,9.07
2023-03-28T08:42:22.096Z,7.95
2023-03-28T08:45:04.384Z,9.05
2023-03-28T08:47:41.190Z,10.30
2023-03-28T08:50:24.067Z,8.75
2023-03-28T08:52:51.076Z,9.30
2023-03-28T08:55:39.094Z,9.00
2023-03-28T08:58:06.992Z,6.32
2023-03-28T09:00:37.018Z,6.65
2023-03-28T09:03:11.825Z,6.93
2023-03-28T09:05:44.456Z,11.80
2023-03-28T09:08:34.025Z,6.65
2023-03-28T09:11:34.050Z,8.23
2023-03-28T09:14:27.519Z,9.20
2023-03-28T09:17:13.025Z,5.55
2023-03-28T09:20:16.353Z,7.60
2023-03-28T09:22:48.784Z,8.38
2023-03-28T09:25:32.726Z,9.77
2023-03-28T09:28:17.798Z,7.15
2023-03-28T09:30:48.532Z,7.57
2023-03-28T09:33:21.195Z,8.10
2023-03-28T09:35:50.292Z,10.23
2023-03-28T09:38:22.147Z,7.78
2023-03-28T09:40:52.953Z,11.23
2023-03-28T09:43:33.425Z,5.97
2023-03-28T09:46:05.099Z,7.80
2023-03-28T09:48:39.587Z,9.75
2023-03-28T09:51:13.312Z,11.10
2023-03-28T09:53:39.683Z,7.30
2023-03-28T09:56:17.737Z,5.38
2023-03-28T09:58:51.532Z,3.55
2023-03-28T10:01:39.744Z,7.65
2023-03-28T10:04:12.110Z,5.95
2023-03-28T10:06:40.338Z,9.27
2023-03-28T10:09:16.415Z,5.07
2023-03-28T10:11:54.563Z,4.30
2023-03-28T10:14:39.442Z,8.15
2023-03-28T10:17:11.859Z,6.47
2023-03-28T10:19:42.000Z,4.95
2023-03-28T10:22:13.940Z,5.05
2023-03-28T10:24:41.048Z,11.07
2023-03-28T10:27:23.923Z,6.10
2023-03-28T10:29:53.372Z,2.47
2023-03-28T10:32:31.717Z,5.15
2023-03-28T10:35:02.107Z,2.88
2023-03-28T10:37:32.314Z,6.88
2023-03-28T10:40:22.258Z,8.05
2023-03-28T10:42:52.120Z,5.13
2023-03-28T10:45:23.803Z,4.53
2023-03-28T10:47:52.578Z,2.53
2023-03-28T10:50:31.408Z,5.53
2023-03-28T10:53:27.148Z,4.70
2023-03-28T10:56:26.287Z,5.78
2023-03-28T10:59:02.537Z,5.43
2023-03-28T11:01:55.901Z,3.97
2023-03-28T11:04:37.268Z,3.47
2023-03-28T11:07:22.674Z,3.50
2023-03-28T11:10:19.379Z,4.33
2023-03-28T11:13:02.175Z,8.23
2023-03-28T11:15:44.811Z,6.25
2023-03-28T11:18:38.697Z,7.05
2023-03-28T11:21:24.446Z,6.60
2023-03-28T11:24:18.581Z,6.60
2023-03-28T11:27:15.446Z,7.40
2023-03-28T11:29:57.121Z,3.47
2023-03-28T11:32:30.358Z,6.80
2023-03-28T11:35:26.423Z,3.53
2023-03-28T11:38:12.548Z,6.05
2023-03-28T11:40:52.149Z,6.43
2023-03-28T11:43:34.333Z,3.13
2023-03-28T11:46:35.357Z,4.50
2023-03-28T11:49:26.012Z,6.22
2023-03-28T11:52:03.826Z,6.75
2023-03-28T11:55:01.311Z,2.97
2023-03-28T11:57:35.660Z,5.10
2023-03-28T12:00:37.667Z,6.07
2023-03-28T12:03:29.237Z,5.38
2023-03-28T12:06:14.133Z,5.05
2023-03-28T12:08:49.718Z,3.35
2023-03-28T12:11:23.527Z,4.72
2023-03-28T12:14:27.969Z,5.18
2023-03-28T12:16:55.643Z,5.70
2023-03-28T12:19:42.657Z,5.13
2023-03-28T12:22:19.593Z,4.05
2023-03-28T12:24:53.808Z,4.97
2023-03-28T12:27:36.711Z,4.63
2023-03-28T12:30:32.346Z,7.15
2023-03-28T12:33:14.772Z,6.13
2023-03-28T12:35:51.069Z,3.75
2023-03-28T12:38:48.564Z,8.05
2023-03-28T12:41:22.796Z,3.28
2023-03-28T12:44:08.173Z,8.80
2023-03-28T12:46:46.146Z,10.43
2023-03-28T12:49:19.592Z,5.43
2023-03-28T12:51:49.921Z,5.93
2023-03-28T12:54:16.259Z,3.97
2023-03-28T12:57:01.993Z,7.47
2023-03-28T12:59:40.593Z,4.60
2023-03-28T13:02:34.981Z,5.20
2023-03-28T13:05:41.409Z,6.97
2023-03-28T13:08:30.393Z,5.50
2023-03-28T13:11:02.694Z,6.43
2023-03-28T13:14:03.941Z,5.22
2023-03-28T13:16:59.514Z,7.30
2023-03-28T13:19:44.817Z,7.22
2023-03-28T13:22:34.232Z,6.15
2023-03-28T13:25:21.001Z,7.47
2023-03-28T13:27:52.687Z,7.07
2023-03-28T13:30:24.424Z,5.65
2023-03-28T13:32:53.694Z,6.97
2023-03-28T13:35:40.904Z,6.75
2023-03-28T13:38:35.023Z,8.15
2023-03-28T13:41:09.062Z,7.07
2023-03-28T13:43:39.041Z,8.30
2023-03-28T13:46:28.549Z,8.43
2023-03-28T13:49:09.492Z,14.02
2023-03-28T13:51:46.201Z,4.97
2023-03-28T13:54:12.628Z,4.57
2023-03-28T13:56:43.497Z,5.80
2023-03-28T13:59:25.156Z,5.90
2023-03-28T14:01:57.414Z,8.25
2023-03-28T14:04:32.750Z,7.25
2023-03-28T14:07:00.198Z,5.10
2023-03-28T14:09:26.570Z,4.93
2023-03-28T14:11:54.335Z,6.47
2023-03-28T14:14:28.417Z,5.95
2023-03-28T14:16:55.349Z,5.57
2023-03-28T14:19:35.101Z,7.18
2023-03-28T14:22:01.660Z,7.55
2023-03-28T14:24:28.085Z,4.82
2023-03-28T14:27:07.119Z,4.53
2023-03-28T14:29:33.482Z,3.63
2023-03-28T14:32:00.699Z,7.50
2023-03-28T14:34:30.445Z,7.55
2023-03-28T14:37:06.246Z,4.32
2023-03-28T14:42:06.461Z,4.82
2023-03-28T14:44:39.257Z,6.80
2023-03-28T14:47:06.400Z,4.55
2023-03-28T14:49:33.079Z,5.53
2023-03-28T14:52:03.379Z,4.07
2023-03-28T14:54:34.757Z,2.55
2023-03-28T14:57:03.691Z,5.63
2023-03-28T14:59:40.766Z,4.65
2023-03-28T15:02:21.165Z,4.93
2023-03-28T15:04:49.121Z,5.03
2023-03-28T15:07:23.811Z,7.53
2023-03-28T15:10:11.849Z,6.03
2023-03-28T15:12:51.217Z,5.35
2023-03-28T15:15:22.801Z,4.47
2023-03-28T15:17:51.767Z,6.25
2023-03-28T15:20:23.483Z,6.22
2023-03-28T15:22:56.677Z,7.00
2023-03-28T15:25:24.587Z,4.80
2023-03-28T15:27:59.636Z,5.90
2023-03-28T15:30:26.621Z,5.97
2023-03-28T15:33:01.564Z,7.63
2023-03-28T15:35:39.080Z,4.13
2023-03-28T15:38:09.263Z,5.40
2023-03-28T15:40:41.707Z,4.75
2023-03-28T15:43:29.233Z,4.95
2023-03-28T15:46:01.567Z,5.07
2023-03-28T15:48:32.256Z,2.95
2023-03-28T15:51:03.818Z,5.65
2023-03-28T15:53:31.165Z,4.95
2023-03-28T15:56:06.131Z,3.83
2023-03-28T15:58:34.136Z,6.65
2023-03-28T16:01:20.963Z,4.95
2023-03-28T16:03:49.581Z,3.78
2023-03-28T16:06:31.682Z,5.93
2023-03-28T16:09:15.639Z,4.60
2023-03-28T16:11:43.253Z,5.15
2023-03-28T16:14:16.122Z,7.55
2023-03-28T16:16:42.497Z,5.68
2023-03-28T16:19:24.648Z,5.75
2023-03-28T16:21:51.775Z,4.90
2023-03-28T16:24:19.685Z,6.47
2023-03-28T16:26:47.430Z,4.05
2023-03-28T16:29:13.917Z,5.05
2023-03-28T16:31:40.923Z,6.07
2023-03-28T16:34:09.858Z,6.70
2023-03-28T16:36:36.672Z,7.35
2023-03-28T16:39:05.101Z,4.43
2023-03-28T16:41:31.875Z,5.95
2023-03-28T16:43:58.292Z,6.05
2023-03-28T16:46:24.886Z,6.30
2023-03-28T16:48:51.341Z,9.30
2023-03-28T16:51:17.784Z,4.93
2023-03-28T16:53:44.233Z,5.50
2023-03-28T16:56:15.573Z,6.18
2023-03-28T16:58:42.208Z,6.45
2023-03-28T17:01:15.507Z,5.47
2023-03-28T17:03:41.970Z,5.68
2023-03-28T17:06:09.849Z,7.38
2023-03-28T17:08:36.379Z,7.95
2023-03-28T17:11:09.161Z,4.93
2023-03-28T17:13:36.766Z,6.07
2023-03-28T17:16:03.589Z,6.90
2023-03-28T17:18:31.677Z,6.97
2023-03-28T17:21:06.532Z,12.07
2023-03-28T17:23:34.469Z,4.63
2023-03-28T17:26:01.216Z,3.97
2023-03-28T17:28:28.538Z,7.20
2023-03-28T17:30:55.410Z,5.40
2023-03-28T17:33:22.353Z,11.75
2023-03-28T17:35:49.636Z,6.25
2023-03-28T17:38:16.192Z,3.40
2023-03-28T17:40:47.142Z,4.75
2023-03-28T17:43:13.613Z,7.75
2023-03-28T17:45:40.083Z,6.72
2023-03-28T17:48:07.228Z,6.72
2023-03-28T17:50:33.930Z,5.95
2023-03-28T17:53:00.651Z,5.20
2023-03-28T17:55:26.984Z,5.55
2023-03-28T17:57:53.327Z,4.43
2023-03-28T18:00:20.217Z,7.70
2023-03-28T18:02:47.172Z,8.57
2023-03-28T18:05:13.640Z,5.25
2023-03-28T18:07:40.305Z,4.47
2023-03-28T18:10:08.668Z,5.85
2023-03-28T18:12:36.542Z,6.13
2023-03-28T18:15:04.435Z,3.38
2023-03-28T18:17:30.859Z,4.82
2023-03-28T18:19:58.796Z,7.22
2023-03-28T18:22:25.437Z,6.82
2023-03-28T18:24:51.861Z,5.13
2023-03-28T18:27:18.253Z,6.05
2023-03-28T18:29:44.675Z,5.47
2023-03-28T18:32:11.554Z,4.47
2023-03-28T18:34:39.465Z,7.18
2023-03-28T18:37:06.536Z,6.82
2023-03-28T18:39:32.896Z,9.85
2023-03-28T18:41:59.532Z,6.53
2023-03-28T18:44:25.885Z,9.02
2023-03-28T18:46:54.819Z,10.35
2023-03-28T18:49:22.580Z,14.93
2023-03-28T18:51:49.184Z,10.32
2023-03-28T18:54:16.017Z,10.40
2023-03-28T18:56:42.425Z,8.60
2023-03-28T18:59:09.012Z,8.48
2023-03-28T19:01:35.770Z,5.65
2023-03-28T19:04:02.273Z,5.90
2023-03-28T19:06:28.661Z,6.88
2023-03-28T19:08:55.078Z,6.70
2023-03-28T19:11:22.463Z,4.40
2023-03-28T19:13:50.341Z,6.68
2023-03-28T19:16:19.175Z,6.13
2023-03-28T19:18:46.948Z,7.35
2023-03-28T19:21:14.156Z,7.60
2023-03-28T19:23:41.115Z,5.13
2023-03-28T19:26:08.825Z,7.10
2023-03-28T19:28:35.648Z,6.40
2023-03-28T19:31:04.471Z,7.65
2023-03-28T19:33:30.961Z,6.88
2023-03-28T19:35:57.663Z,8.18
2023-03-28T19:38:25.824Z,6.53
2023-03-28T19:40:59.861Z,8.25
2023-03-28T19:43:27.224Z,10.85
2023-03-28T19:45:53.797Z,8.45
2023-03-28T19:48:20.347Z,5.60
2023-03-28T19:50:49.451Z,9.07
2023-03-28T19:53:16.172Z,6.88
2023-03-28T19:55:42.947Z,7.60
2023-03-28T19:58:10.184Z,5.15
2023-03-28T20:00:36.741Z,7.38
2023-03-28T20:03:04.351Z,5.80
2023-03-28T20:05:30.893Z,7.20
2023-03-28T20:07:57.446Z,5.97
2023-03-28T20:10:23.871Z,4.97
2023-03-28T20:12:50.264Z,6.47
2023-03-28T20:15:16.858Z,7.28
2023-03-28T20:17:43.201Z,6.03
2023-03-28T20:20:10.320Z,6.05
2023-03-28T20:22:37.919Z,8.05
2023-03-28T20:25:04.576Z,7.15
2023-03-28T20:27:31.930Z,8.73
2023-03-28T20:29:58.412Z,5.90
2023-03-28T20:32:24.811Z,5.50
2023-03-28T20:34:51.203Z,6.00
2023-03-28T20:37:18.119Z,6.50
2023-03-28T20:39:48.145Z,5.20
2023-03-28T20:42:14.556Z,6.22
2023-03-28T20:44:41.066Z,6.03
2023-03-28T20:47:09.113Z,5.25
2023-03-28T20:49:38.169Z,4.70
2023-03-28T20:52:07.699Z,7.25
2023-03-28T20:54:34.307Z,6.53
2023-03-28T20:57:00.685Z,7.50
2023-03-28T20:59:28.212Z,8.63
2023-03-28T21:01:54.769Z,7.25
2023-03-28T21:04:21.880Z,6.00
2023-03-28T21:06:49.870Z,4.32
2023-03-28T21:09:17.828Z,5.25
2023-03-28T21:11:44.625Z,6.20
2023-03-28T21:14:13.589Z,5.30
2023-03-28T21:16:40.821Z,5.90
2023-03-28T21:19:07.469Z,5.03
2023-03-28T21:21:34.154Z,5.13
2023-03-28T21:24:01.846Z,5.85
2023-03-28T21:26:29.073Z,5.28
2023-03-28T21:28:55.644Z,6.43
2023-03-28T21:31:27.272Z,4.60
2023-03-28T21:33:56.994Z,4.78
2023-03-28T21:36:24.484Z,10.60
2023-03-28T21:38:50.968Z,5.82
2023-03-28T21:41:17.401Z,6.43
2023-03-28T21:43:44.367Z,6.18
2023-03-28T21:46:11.719Z,4.45
2023-03-28T21:48:38.747Z,7.07
2023-03-28T21:51:06.151Z,5.88
2023-03-28T21:53:35.123Z,7.18
2023-03-28T21:56:02.316Z,9.13
2023-03-28T21:58:31.885Z,5.38
2023-03-28T22:00:58.890Z,4.90
2023-03-28T22:03:26.350Z,5.25
2023-03-28T22:05:54.249Z,5.65
2023-03-28T22:08:22.115Z,6.47
2023-03-28T22:10:54.648Z,5.03
2023-03-28T22:13:21.446Z,5.75
2023-03-28T22:15:47.823Z,6.25
2023-03-28T22:18:14.232Z,5.50
2023-03-28T22:20:43.411Z,4.88
2023-03-28T22:23:10.502Z,6.63
2023-03-28T22:25:38.606Z,7.13
2023-03-28T22:28:08.398Z,5.63
2023-03-28T22:30:36.047Z,7.80
2023-03-28T22:33:04.052Z,4.97
2023-03-28T22:35:31.229Z,6.47
2023-03-28T22:37:57.649Z,6.78
2023-03-28T22:40:24.077Z,6.45
2023-03-28T22:42:50.747Z,7.28
2023-03-28T22:45:17.180Z,5.60
2023-03-28T22:47:43.643Z,6.18
2023-03-28T22:50:11.651Z,5.80
2023-03-28T22:52:38.910Z,6.00
2023-03-28T22:55:05.946Z,11.68
2023-03-28T22:57:32.407Z,5.63
2023-03-28T22:59:58.886Z,5.82
2023-03-28T23:02:25.592Z,6.10
2023-03-28T23:04:54.126Z,4.85
2023-03-28T23:07:20.833Z,7.88
2023-03-28T23:09:47.454Z,4.47
2023-03-28T23:12:13.877Z,4.82
2023-03-28T23:14:40.620Z,9.65
2023-03-28T23:17:07.002Z,4.97
2023-03-28T23:19:33.365Z,6.82
2023-03-28T23:21:59.979Z,6.05
2023-03-28T23:24:27.655Z,6.05
2023-03-28T23:26:55.647Z,6.40
2023-03-28T23:29:23.384Z,6.82
2023-03-28T23:31:50.079Z,4.78
2023-03-28T23:34:16.793Z,6.55
2023-03-28T23:36:46.132Z,5.18
2023-03-28T23:39:13.447Z,6.03
2023-03-28T23:41:41.254Z,8.75
2023-03-28T23:44:08.207Z,7.68
2023-03-28T23:46:35.701Z,6.40
2023-03-28T23:49:02.129Z,6.68
2023-03-28T23:51:29.171Z,7.13
2023-03-28T23:53:56.305Z,10.93
2023-03-28T23:56:23.861Z,6.65
2023-03-28T23:58:50.755Z,9.60
